Time;durP1;ratioP1;P1;durP2;ratioP2;P2;SDS_P1;SDS_P2;PMS_P1;PMS_P2;Temp;Humidity;BMP_temperature;BMP_pressure;BME280_temperature;BME280_humidity;BME280_pressure;Samples;Min_cycle;Max_cycle;Signal;HPM_P1;HPM_P2
2023/10/02 00:02:40;;;;;;;19.27;10.55;;;18.30;99.90;;;;;;5051750;28;20017;-70
2023/10/02 00:05:05;;;;;;;18.33;9.93;;;18.30;99.90;;;;;;5051097;28;20445;-69
2023/10/02 00:07:34;;;;;;;14.07;8.00;;;18.30;99.90;;;;;;5052077;28;20013;-69
2023/10/02 00:10:00;;;;;;;19.30;10.70;;;18.30;99.90;;;;;;5051033;28;20095;-70
2023/10/02 00:12:28;;;;;;;15.52;9.07;;;18.30;99.90;;;;;;5051773;28;20025;-70
2023/10/02 00:14:55;;;;;;;18.65;9.40;;;18.30;99.90;;;;;;5051549;28;20087;-70
2023/10/02 00:17:24;;;;;;;17.35;9.50;;;18.30;99.90;;;;;;5051473;28;20379;-70
2023/10/02 00:20:19;;;;;;;17.80;9.98;;;18.30;99.90;;;;;;5051233;28;20079;-69
2023/10/02 00:22:38;;;;;;;16.70;9.35;;;18.30;99.90;;;;;;5051457;28;20025;-70
2023/10/02 00:25:09;;;;;;;19.60;10.05;;;18.30;99.90;;;;;;5051133;28;20263;-70
2023/10/02 00:27:36;;;;;;;16.23;8.80;;;18.30;99.90;;;;;;5051634;28;20032;-69
2023/10/02 00:30:03;;;;;;;14.52;8.70;;;18.20;99.90;;;;;;5050964;28;20088;-69
2023/10/02 00:32:29;;;;;;;14.48;8.55;;;18.20;99.90;;;;;;5051509;28;20088;-70
2023/10/02 00:34:58;;;;;;;17.48;9.65;;;18.20;99.90;;;;;;5051360;28;20036;-69
2023/10/02 00:37:43;;;;;;;15.98;9.10;;;18.20;99.90;;;;;;5051620;28;20055;-70
2023/10/02 00:40:20;;;;;;;18.58;10.15;;;18.20;99.90;;;;;;5050965;28;20028;-70
2023/10/02 00:42:54;;;;;;;18.55;10.27;;;18.20;99.90;;;;;;5051463;28;20052;-70
2023/10/02 00:45:21;;;;;;;16.88;9.13;;;18.20;99.90;;;;;;5049672;28;20087;-70
2023/10/02 00:47:48;;;;;;;15.88;9.02;;;18.20;99.90;;;;;;5051407;28;20112;-69
2023/10/02 00:50:22;;;;;;;16.10;9.15;;;18.20;99.90;;;;;;5050669;28;20557;-69
2023/10/02 00:53:03;;;;;;;13.48;7.68;;;18.10;99.90;;;;;;5051325;28;20023;-69
2023/10/02 00:55:32;;;;;;;17.73;9.40;;;18.10;99.90;;;;;;5050646;28;20021;-68
2023/10/02 00:58:10;;;;;;;15.50;9.38;;;18.10;99.90;;;;;;5050145;28;20520;-70
2023/10/02 01:00:35;;;;;;;15.77;8.60;;;18.10;99.90;;;;;;5050788;28;20024;-69
2023/10/02 01:03:04;;;;;;;15.15;8.52;;;18.10;99.90;;;;;;5051315;28;20021;-70
2023/10/02 01:05:42;;;;;;;17.05;9.15;;;18.10;99.90;;;;;;5049340;28;20029;-70
2023/10/02 01:08:23;;;;;;;17.33;9.18;;;18.10;99.90;;;;;;5051330;28;20029;-70
2023/10/02 01:10:57;;;;;;;20.30;10.10;;;18.00;99.90;;;;;;5050976;28;20047;-70
2023/10/02 01:13:35;;;;;;;17.55;9.45;;;18.00;99.90;;;;;;5050034;28;20167;-70
2023/10/02 01:16:09;;;;;;;17.90;8.45;;;18.10;99.90;;;;;;5049212;28;20388;-70
2023/10/02 01:18:36;;;;;;;17.60;9.75;;;18.00;99.90;;;;;;5051277;28;20036;-70
2023/10/02 01:21:11;;;;;;;17.00;9.00;;;18.00;99.90;;;;;;5050972;28;20021;-70
2023/10/02 01:24:07;;;;;;;17.10;9.40;;;18.00;99.90;;;;;;5054903;28;20025;-70
2023/10/02 01:26:42;;;;;;;13.63;8.13;;;18.00;99.90;;;;;;5052686;28;20048;-69
2023/10/02 01:29:10;;;;;;;13.57;7.85;;;18.00;99.90;;;;;;5054857;28;20032;-69
2023/10/02 01:31:42;;;;;;;15.75;9.00;;;18.00;99.90;;;;;;5052627;28;20025;-69
2023/10/02 01:34:10;;;;;;;19.98;9.10;;;18.00;99.90;;;;;;5054562;28;20070;-70
2023/10/02 01:36:41;;;;;;;19.42;9.15;;;18.00;99.90;;;;;;5053813;28;20050;-70
2023/10/02 01:39:16;;;;;;;17.20;9.32;;;18.00;99.90;;;;;;5053143;28;20056;-70
2023/10/02 01:41:52;;;;;;;18.85;9.98;;;18.00;99.90;;;;;;5053902;28;20472;-70
2023/10/02 01:44:22;;;;;;;18.02;9.95;;;18.00;99.90;;;;;;5054422;28;20029;-69
2023/10/02 01:46:52;;;;;;;16.70;8.90;;;18.00;99.90;;;;;;5053675;28;20274;-70
2023/10/02 01:49:25;;;;;;;17.40;10.02;;;18.00;99.90;;;;;;5054031;28;20299;-70
2023/10/02 01:51:57;;;;;;;17.05;7.88;;;18.00;99.90;;;;;;5053414;28;20052;-70
2023/10/02 01:54:25;;;;;;;17.45;8.73;;;18.00;99.90;;;;;;5054268;28;20029;-70
2023/10/02 01:56:52;;;;;;;17.10;8.77;;;18.00;99.90;;;;;;5052145;28;20017;-70
2023/10/02 01:59:19;;;;;;;14.80;8.60;;;18.00;99.90;;;;;;5054202;28;20018;-70
2023/10/02 02:01:54;;;;;;;16.05;9.05;;;18.00;99.90;;;;;;5052045;28;20117;-70
2023/10/02 02:04:20;;;;;;;14.93;8.45;;;18.00;99.90;;;;;;5054008;28;20017;-69
2023/10/02 02:06:52;;;;;;;15.10;8.75;;;18.00;99.90;;;;;;5053327;28;20078;-69
2023/10/02 02:09:25;;;;;;;14.73;8.27;;;18.00;99.90;;;;;;5054198;28;20036;-69
2023/10/02 02:12:05;;;;;;;15.98;8.43;;;18.00;99.90;;;;;;5053288;28;20028;-70
2023/10/02 02:14:32;;;;;;;16.15;8.77;;;18.00;99.90;;;;;;5054327;28;20498;-70
2023/10/02 02:16:58;;;;;;;17.40;8.70;;;18.00;99.90;;;;;;5052940;28;20028;-70
2023/10/02 02:19:24;;;;;;;16.67;8.93;;;18.00;99.90;;;;;;5053786;28;20020;-70
2023/10/02 02:21:56;;;;;;;15.15;8.68;;;18.00;99.90;;;;;;5052999;28;20025;-70
2023/10/02 02:24:25;;;;;;;12.85;7.22;;;17.90;99.90;;;;;;5052440;28;20111;-70
2023/10/02 02:26:57;;;;;;;16.48;8.73;;;17.90;99.90;;;;;;5051656;28;20021;-70
2023/10/02 02:29:26;;;;;;;15.43;8.40;;;17.90;99.90;;;;;;5053642;28;20025;-70
2023/10/02 02:31:53;;;;;;;16.77;8.88;;;17.90;99.90;;;;;;5052795;28;20029;-70
2023/10/02 02:34:20;;;;;;;16.02;8.82;;;17.90;99.90;;;;;;5053478;28;20033;-70
2023/10/02 02:36:49;;;;;;;16.75;8.48;;;17.90;99.90;;;;;;5052906;28;20032;-70
2023/10/02 02:39:17;;;;;;;19.00;9.45;;;17.80;99.90;;;;;;5053390;28;20373;-70
2023/10/02 02:44:46;;;;;;;15.60;8.60;;;17.80;99.90;;;;;;5053610;28;20083;-69
2023/10/02 02:47:20;;;;;;;17.58;9.20;;;17.80;99.90;;;;;;5050495;28;20040;-70
2023/10/02 02:49:58;;;;;;;21.45;9.48;;;17.70;99.90;;;;;;5053158;28;20282;-70
2023/10/02 02:52:25;;;;;;;16.30;8.90;;;17.70;99.90;;;;;;5051470;28;20021;-70
2023/10/02 02:55:03;;;;;;;19.80;9.25;;;17.70;99.90;;;;;;5053040;28;20070;-70
2023/10/02 02:57:31;;;;;;;18.90;8.65;;;17.70;99.90;;;;;;5052639;28;20032;-70
2023/10/02 03:02:52;;;;;;;14.88;8.35;;;17.60;99.90;;;;;;5052916;28;20110;-70
2023/10/02 03:05:21;;;;;;;;;;;17.60;99.90;;;;;;5052827;28;20493;-69
2023/10/02 03:07:49;;;;;;;15.38;8.68;;;17.50;99.90;;;;;;5052655;28;20343;-70
2023/10/02 03:10:17;;;;;;;15.02;8.73;;;17.40;99.90;;;;;;5052162;28;20017;-69
2023/10/02 03:12:51;;;;;;;13.43;7.68;;;17.40;99.90;;;;;;5052464;28;20036;-70
2023/10/02 03:15:45;;;;;;;15.57;8.38;;;17.40;99.90;;;;;;5050882;28;20119;-70
2023/10/02 03:18:22;;;;;;;13.68;7.80;;;17.40;99.90;;;;;;5052401;28;20112;-69
2023/10/02 03:20:54;;;;;;;13.48;7.72;;;17.40;99.90;;;;;;5051868;28;20029;-69
2023/10/02 03:23:20;;;;;;;16.73;8.68;;;17.30;99.90;;;;;;5051202;28;20060;-69
2023/10/02 03:25:47;;;;;;;16.80;8.45;;;17.30;99.90;;;;;;5051726;28;20063;-70
2023/10/02 03:28:27;;;;;;;15.93;7.97;;;17.30;99.90;;;;;;5052580;28;20029;-70
2023/10/02 03:30:56;;;;;;;16.45;7.65;;;17.30;99.90;;;;;;5050438;28;20025;-70
2023/10/02 03:33:22;;;;;;;15.65;7.78;;;17.20;99.90;;;;;;5052358;28;20025;-70
2023/10/02 03:35:58;;;;;;;12.65;7.72;;;17.20;99.90;;;;;;5051608;28;20079;-70
2023/10/02 03:38:33;;;;;;;13.95;7.57;;;17.20;99.90;;;;;;5052148;28;20541;-70
2023/10/02 03:41:03;;;;;;;16.50;8.75;;;17.20;99.90;;;;;;5051771;28;20020;-69
2023/10/02 03:43:37;;;;;;;17.70;8.63;;;17.20;99.90;;;;;;5051882;28;20116;-69
2023/10/02 03:46:06;;;;;;;17.83;8.70;;;17.20;99.90;;;;;;5051518;28;20096;-70
2023/10/02 03:48:36;;;;;;;17.90;9.15;;;17.20;99.90;;;;;;5051906;28;20119;-70
2023/10/02 03:51:06;;;;;;;14.52;8.57;;;17.20;99.90;;;;;;5051512;28;20467;-70
2023/10/02 03:53:34;;;;;;;19.67;8.50;;;17.10;99.90;;;;;;5052507;28;20033;-70
2023/10/02 03:58:50;;;;;;;15.43;8.43;;;17.10;99.90;;;;;;5052660;28;20043;-70
2023/10/02 04:01:25;;;;;;;14.73;7.57;;;17.10;99.90;;;;;;5051280;28;20017;-70
2023/10/02 04:06:35;;;;;;;15.85;8.20;;;17.10;99.90;;;;;;5051345;28;20060;-70
2023/10/02 04:09:09;;;;;;;15.32;8.20;;;17.00;99.90;;;;;;5050645;28;20029;-69
2023/10/02 04:11:35;;;;;;;18.88;9.40;;;17.00;99.90;;;;;;5049943;28;20112;-70
2023/10/02 04:14:01;;;;;;;17.02;8.98;;;17.00;99.90;;;;;;5051802;28;20025;-69
2023/10/02 04:16:29;;;;;;;14.13;7.72;;;17.00;99.90;;;;;;5049637;28;20458;-69
2023/10/02 04:19:02;;;;;;;16.05;9.00;;;17.00;99.90;;;;;;5051866;28;20039;-70
2023/10/02 04:21:29;;;;;;;15.77;7.82;;;17.00;99.90;;;;;;5050026;28;20290;-69
2023/10/02 04:23:58;;;;;;;14.65;7.80;;;16.90;99.90;;;;;;5050426;28;20052;-70
2023/10/02 04:26:28;;;;;;;18.52;8.43;;;16.90;99.90;;;;;;5051072;28;20312;-69
2023/10/02 04:28:56;;;;;;;14.35;8.13;;;16.90;99.90;;;;;;5051617;28;20040;-70
2023/10/02 04:31:30;;;;;;;17.00;8.65;;;16.90;99.90;;;;;;5051227;28;20031;-69
2023/10/02 04:36:42;;;;;;;15.45;8.05;;;16.90;99.90;;;;;;5050964;28;20040;-70
2023/10/02 04:39:51;;;;;;;18.08;9.48;;;16.90;99.90;;;;;;5051472;28;20096;-69
2023/10/02 04:44:46;;;;;;;14.73;8.02;;;16.80;99.90;;;;;;5051802;28;20044;-70
2023/10/02 04:47:17;;;;;;;14.20;8.02;;;16.80;99.90;;;;;;5050878;28;20024;-69
2023/10/02 04:52:56;;;;;;;19.42;8.27;;;16.80;99.90;;;;;;5050795;28;20033;-70
2023/10/02 04:55:42;;;;;;;18.27;9.52;;;16.80;99.90;;;;;;5050758;28;20493;-69
2023/10/02 04:58:17;;;;;;;14.98;7.90;;;16.80;99.90;;;;;;5053773;28;20032;-69
2023/10/02 05:03:37;;;;;;;17.92;9.35;;;16.70;99.90;;;;;;5055213;28;20037;-70
2023/10/02 05:06:04;;;;;;;14.60;8.20;;;16.70;99.90;;;;;;5054407;28;20043;-70
2023/10/02 05:08:40;;;;;;;17.27;8.95;;;16.70;99.90;;;;;;5055316;28;20096;-69
2023/10/02 05:11:07;;;;;;;17.63;8.82;;;16.80;99.90;;;;;;5054438;28;20064;-69
2023/10/02 05:13:59;;;;;;;18.23;8.65;;;16.80;99.90;;;;;;5054967;28;20021;-69
2023/10/02 05:16:40;;;;;;;18.65;8.88;;;16.80;99.90;;;;;;5054132;28;20391;-69
2023/10/02 05:19:07;;;;;;;19.00;8.85;;;16.80;99.90;;;;;;5054800;28;20036;-69
2023/10/02 05:21:39;;;;;;;17.92;9.35;;;16.80;99.90;;;;;;5054076;28;20082;-69
2023/10/02 05:24:11;;;;;;;16.15;8.80;;;16.80;99.90;;;;;;5054755;28;20526;-69
2023/10/02 05:26:39;;;;;;;18.80;9.57;;;16.80;99.90;;;;;;5054073;28;20021;-69
2023/10/02 05:29:35;;;;;;;17.58;8.57;;;16.80;99.90;;;;;;5054583;28;20029;-69
2023/10/02 05:31:58;;;;;;;16.67;8.90;;;16.80;99.90;;;;;;5054141;28;20033;-70
2023/10/02 05:34:24;;;;;;;18.63;9.07;;;16.80;99.90;;;;;;5054649;28;20032;-69
2023/10/02 05:37:12;;;;;;;18.42;8.75;;;16.80;99.90;;;;;;5054059;28;20029;-69
2023/10/02 05:39:41;;;;;;;21.48;9.82;;;16.80;99.90;;;;;;5054452;28;20104;-70
2023/10/02 05:42:14;;;;;;;18.38;9.60;;;16.70;99.90;;;;;;5054150;28;20155;-69
2023/10/02 05:44:47;;;;;;;18.13;9.27;;;16.70;99.90;;;;;;5054388;28;20017;-70
2023/10/02 05:47:16;;;;;;;19.95;9.25;;;16.70;99.90;;;;;;5053732;28;20021;-70
2023/10/02 05:49:49;;;;;;;17.25;8.52;;;16.70;99.90;;;;;;5054089;28;20180;-70
2023/10/02 05:52:18;;;;;;;20.55;9.52;;;16.70;99.90;;;;;;5053948;28;20036;-69
2023/10/02 05:54:47;;;;;;;17.13;9.98;;;16.70;99.90;;;;;;5054431;28;20021;-69
2023/10/02 05:57:14;;;;;;;20.55;10.05;;;16.70;99.90;;;;;;5053563;28;20132;-70
2023/10/02 05:59:54;;;;;;;17.05;9.77;;;16.60;99.90;;;;;;5054104;28;20074;-69
2023/10/02 06:02:22;;;;;;;19.55;10.02;;;16.60;99.90;;;;;;5053352;28;20535;-70
2023/10/02 06:04:53;;;;;;;18.23;9.43;;;16.70;99.90;;;;;;5053925;28;20036;-69
2023/10/02 06:10:24;;;;;;;20.50;10.05;;;16.60;99.90;;;;;;5054204;28;20583;-69
2023/10/02 06:13:02;;;;;;;16.80;9.38;;;16.60;99.90;;;;;;5053235;28;20036;-70
2023/10/02 06:15:43;;;;;;;19.00;9.80;;;16.70;99.90;;;;;;5053666;28;20032;-69
2023/10/02 06:18:09;;;;;;;22.70;10.65;;;16.60;99.90;;;;;;5053621;28;20067;-69
2023/10/02 06:20:35;;;;;;;19.00;9.52;;;16.60;99.90;;;;;;5053811;28;20021;-69
2023/10/02 06:23:05;;;;;;;18.05;9.85;;;16.70;99.90;;;;;;5053041;28;20503;-70
2023/10/02 06:25:31;;;;;;;21.40;9.90;;;16.70;99.90;;;;;;5053731;28;20025;-69
2023/10/02 06:28:19;;;;;;;18.40;9.35;;;16.70;99.90;;;;;;5052829;28;20051;-69
2023/10/02 06:30:43;;;;;;;17.67;9.32;;;16.70;99.90;;;;;;5053261;28;20021;-69
2023/10/02 06:33:10;;;;;;;18.95;10.27;;;16.80;99.90;;;;;;5053039;28;20021;-70
2023/10/02 06:35:44;;;;;;;16.73;9.15;;;16.80;99.90;;;;;;5053477;28;20040;-70
2023/10/02 06:38:16;;;;;;;15.23;8.43;;;16.80;99.90;;;;;;5052917;28;20028;-69
2023/10/02 06:40:55;;;;;;;16.85;8.40;;;16.80;99.90;;;;;;5053366;28;20024;-70
2023/10/02 06:43:32;;;;;;;20.38;10.30;;;16.90;99.90;;;;;;5053212;28;20551;-70
2023/10/02 06:46:16;;;;;;;17.30;9.05;;;16.90;99.90;;;;;;5052725;28;20049;-70
2023/10/02 06:48:46;;;;;;;19.48;10.35;;;16.90;99.90;;;;;;5051576;28;20497;-70
2023/10/02 06:51:13;;;;;;;;;;;17.00;99.90;;;;;;5053368;28;20029;-69
2023/10/02 06:53:40;;;;;;;19.92;9.95;;;17.00;99.90;;;;;;5052773;28;20276;-70
2023/10/02 06:56:18;;;;;;;21.75;12.27;;;17.00;99.90;;;;;;5052586;28;20052;-69
2023/10/02 06:58:49;;;;;;;20.20;10.35;;;17.00;99.90;;;;;;5053048;28;20106;-69
2023/10/02 07:01:18;;;;;;;25.42;11.55;;;17.10;99.90;;;;;;5051213;28;20032;-69
2023/10/02 07:03:51;;;;;;;23.58;11.15;;;17.10;99.90;;;;;;5052886;28;20013;-69
2023/10/02 07:06:19;;;;;;;21.17;11.25;;;17.20;99.90;;;;;;5052572;28;20021;-69
2023/10/02 07:08:48;;;;;;;21.15;11.48;;;17.20;99.90;;;;;;5052686;28;20195;-69
2023/10/02 07:11:18;;;;;;;21.52;11.27;;;17.30;99.90;;;;;;5052366;28;20032;-69
2023/10/02 07:14:03;;;;;;;20.70;11.05;;;17.40;99.90;;;;;;5052546;28;20052;-70
2023/10/02 07:16:33;;;;;;;21.58;12.00;;;17.50;99.90;;;;;;5052053;28;20048;-69
2023/10/02 07:18:59;;;;;;;29.50;12.83;;;17.50;99.90;;;;;;5051879;28;20032;-69
2023/10/02 07:21:30;;;;;;;22.23;11.90;;;17.60;99.90;;;;;;5051919;28;20017;-69
2023/10/02 07:24:02;;;;;;;24.80;12.15;;;17.70;99.90;;;;;;5052621;28;20029;-69
2023/10/02 07:29:12;;;;;;;20.55;10.88;;;17.90;99.90;;;;;;5052624;28;20155;-69
2023/10/02 07:31:38;;;;;;;24.10;12.27;;;18.00;99.90;;;;;;5051761;28;20479;-69
2023/10/02 07:34:07;;;;;;;22.45;12.20;;;18.00;99.90;;;;;;5052691;28;20111;-69
2023/10/02 07:36:44;;;;;;;26.77;12.25;;;18.10;99.90;;;;;;5051608;28;20108;-69
2023/10/02 07:39:35;;;;;;;22.80;11.57;;;18.10;99.90;;;;;;5052214;28;20021;-69
2023/10/02 07:42:00;;;;;;;23.67;11.90;;;18.20;99.90;;;;;;5051604;28;20487;-69
2023/10/02 07:44:36;;;;;;;23.05;11.02;;;18.30;99.90;;;;;;5052406;28;20021;-69
2023/10/02 07:47:10;;;;;;;25.63;11.95;;;18.40;99.90;;;;;;5050116;28;20521;-69
2023/10/02 07:49:37;;;;;;;23.27;12.57;;;18.50;99.90;;;;;;5050724;28;20414;-69
2023/10/02 07:52:06;;;;;;;23.60;12.82;;;18.50;99.90;;;;;;5051495;28;20430;-69
2023/10/02 07:54:44;;;;;;;20.55;10.90;;;18.60;99.90;;;;;;5052114;28;20426;-69
2023/10/02 07:57:13;;;;;;;23.67;12.70;;;18.70;99.90;;;;;;5051222;28;20025;-69
2023/10/02 07:59:43;;;;;;;24.55;12.02;;;18.70;99.90;;;;;;5051850;28;20029;-69
2023/10/02 08:02:21;;;;;;;22.00;11.85;;;18.80;99.90;;;;;;5051298;28;20025;-69
2023/10/02 08:04:48;;;;;;;24.27;12.77;;;18.90;99.90;;;;;;5051935;28;20028;-69
2023/10/02 08:07:14;;;;;;;26.00;12.85;;;18.90;99.90;;;;;;5049924;28;20063;-69
2023/10/02 08:09:47;;;;;;;24.42;12.73;;;18.90;99.90;;;;;;5050624;28;20518;-69
2023/10/02 08:12:29;;;;;;;24.60;12.50;;;19.00;99.90;;;;;;5051230;28;20032;-69
2023/10/02 08:15:01;;;;;;;23.77;12.88;;;19.00;99.90;;;;;;5052007;28;20096;-69
2023/10/02 08:20:19;;;;;;;;;;;19.10;99.90;;;;;;5052340;28;20032;-69
2023/10/02 08:22:44;;;;;;;22.90;12.77;;;19.10;99.90;;;;;;5051025;28;20417;-69
2023/10/02 08:25:13;;;;;;;21.52;12.52;;;19.10;99.90;;;;;;5051905;28;20053;-69
2023/10/02 08:27:41;;;;;;;25.05;13.45;;;19.10;99.90;;;;;;5051248;28;20087;-69
2023/10/02 08:30:19;;;;;;;21.48;11.68;;;19.20;99.90;;;;;;5052343;28;20036;-69
2023/10/02 08:32:45;;;;;;;23.70;12.95;;;19.20;99.90;;;;;;5055126;28;20029;-69
2023/10/02 08:35:13;;;;;;;23.67;12.82;;;19.20;99.90;;;;;;5055626;28;20032;-69
2023/10/02 08:37:40;;;;;;;23.92;12.82;;;19.30;99.90;;;;;;5053704;28;20120;-70
2023/10/02 08:40:08;;;;;;;24.67;12.25;;;19.30;99.90;;;;;;5055795;28;20017;-69
2023/10/02 08:42:34;;;;;;;23.38;12.18;;;19.30;99.90;;;;;;5054946;28;20071;-69
2023/10/02 08:45:00;;;;;;;23.67;13.23;;;19.30;99.90;;;;;;5055754;28;20017;-69
2023/10/02 08:47:27;;;;;;;23.27;11.75;;;19.40;99.90;;;;;;5054931;28;20100;-69
2023/10/02 08:50:05;;;;;;;22.50;12.95;;;19.50;99.90;;;;;;5055187;28;20045;-69
2023/10/02 08:52:47;;;;;;;21.15;12.35;;;19.50;99.90;;;;;;5053558;28;20403;-69
2023/10/02 08:55:33;;;;;;;21.77;11.88;;;19.60;99.90;;;;;;5055331;28;20021;-69
2023/10/02 08:58:15;;;;;;;27.20;13.23;;;19.60;99.90;;;;;;5054570;28;20082;-69
2023/10/02 09:01:05;;;;;;;23.30;12.77;;;19.60;99.90;;;;;;5053831;28;20449;-69
2023/10/02 09:03:41;;;;;;;21.92;11.98;;;19.70;99.90;;;;;;5054439;28;20021;-69
2023/10/02 09:06:25;;;;;;;24.67;13.00;;;19.70;99.90;;;;;;5055168;28;20047;-69
2023/10/02 09:11:36;;;;;;;25.58;13.57;;;19.80;99.90;;;;;;5054852;28;20446;-69
2023/10/02 09:14:12;;;;;;;19.48;11.30;;;19.80;99.90;;;;;;5054834;28;20017;-69
2023/10/02 09:16:38;;;;;;;22.50;12.38;;;19.90;99.90;;;;;;5054337;28;20074;-69
2023/10/02 09:19:28;;;;;;;24.58;13.48;;;19.90;99.90;;;;;;5054595;28;20017;-70
2023/10/02 09:22:06;;;;;;;20.58;11.63;;;20.00;99.90;;;;;;5052942;28;20044;-69
2023/10/02 09:24:55;;;;;;;27.50;13.80;;;20.00;99.90;;;;;;5054821;28;20025;-69
2023/10/02 09:27:30;;;;;;;24.90;13.18;;;20.10;99.90;;;;;;5054007;28;20021;-69
2023/10/02 09:33:33;;;;;;;22.83;13.07;;;20.10;99.90;;;;;;5051481;28;20108;-69
2023/10/02 09:36:00;;;;;;;22.65;12.93;;;20.20;99.90;;;;;;5052051;28;20025;-69
2023/10/02 09:38:31;;;;;;;25.50;13.38;;;20.20;99.90;;;;;;5051407;28;20021;-69
2023/10/02 09:43:33;;;;;;;27.45;14.57;;;20.20;99.90;;;;;;5050383;28;20521;-69
2023/10/02 09:46:05;;;;;;;24.90;13.95;;;20.20;99.90;;;;;;5051934;28;20048;-69
2023/10/02 09:51:27;;;;;;;25.08;14.20;;;20.30;99.90;;;;;;5052165;28;20130;-69
2023/10/02 09:54:13;;;;;;;19.40;11.50;;;20.30;99.90;;;;;;5051347;28;20403;-69
2023/10/02 09:57:06;;;;;;;24.75;13.45;;;20.30;99.90;;;;;;5051282;28;20037;-69
2023/10/02 09:59:48;;;;;;;23.85;12.30;;;20.40;99.90;;;;;;5051706;28;20021;-69
2023/10/02 10:05:23;;;;;;;20.77;12.25;;;20.60;99.90;;;;;;5051689;28;20419;-69
2023/10/02 10:10:49;;;;;;;24.25;13.25;;;20.70;99.90;;;;;;5054246;28;20497;-69
2023/10/02 10:13:37;;;;;;;25.85;13.95;;;20.80;99.90;;;;;;5053705;28;20017;-69
2023/10/02 10:16:23;;;;;;;23.73;13.57;;;20.80;99.90;;;;;;5053746;28;20021;-69
2023/10/02 10:24:55;;;;;;;30.02;14.30;;;21.00;99.90;;;;;;5053622;28;20583;-69
2023/10/02 10:27:41;;;;;;;28.17;14.18;;;21.00;99.90;;;;;;5053064;28;20033;-69
2023/10/02 10:30:22;;;;;;;24.20;13.35;;;21.10;99.90;;;;;;5053466;28;20029;-69
2023/10/02 10:33:15;;;;;;;;;;;21.20;99.90;;;;;;5053220;28;20103;-69
2023/10/02 10:35:48;;;;;;;22.98;11.88;;;21.20;99.90;;;;;;5053435;28;19912;-70
2023/10/02 10:38:29;;;;;;;24.60;13.23;;;21.30;99.90;;;;;;5052811;28;20032;-69
2023/10/02 10:40:55;;;;;;;21.00;12.98;;;21.30;99.90;;;;;;5053354;28;20016;-69
2023/10/02 10:43:26;;;;;;;21.88;12.75;;;21.40;99.90;;;;;;5052815;28;20380;-69
2023/10/02 10:45:54;;;;;;;23.27;12.05;;;21.40;99.90;;;;;;5052027;28;20051;-69
2023/10/02 10:48:24;;;;;;;23.63;12.95;;;21.40;99.90;;;;;;5052427;28;20021;-69
2023/10/02 10:50:59;;;;;;;22.20;12.05;;;21.50;99.90;;;;;;5052975;28;20064;-70
2023/10/02 10:53:26;;;;;;;25.60;13.23;;;21.60;99.90;;;;;;5052189;28;20052;-69
2023/10/02 10:56:05;;;;;;;23.33;13.25;;;21.70;99.90;;;;;;5052895;28;20021;-69
2023/10/02 10:58:35;;;;;;;16.67;10.13;;;21.70;99.90;;;;;;5052400;28;20210;-69
2023/10/02 11:01:05;;;;;;;20.70;12.68;;;21.80;99.90;;;;;;5052846;28;20075;-70
2023/10/02 11:03:31;;;;;;;23.08;13.48;;;21.90;99.90;;;;;;5052154;28;20044;-69
2023/10/02 11:06:04;;;;;;;20.33;11.75;;;21.90;99.90;;;;;;5052986;28;20036;-69
2023/10/02 11:08:33;;;;;;;25.45;12.43;;;22.00;99.90;;;;;;5052132;28;20036;-69
2023/10/02 11:11:06;;;;;;;18.00;10.88;;;22.10;99.90;;;;;;5052629;28;20027;-69
2023/10/02 11:13:50;;;;;;;22.38;13.25;;;22.20;99.90;;;;;;5052045;28;20028;-69
2023/10/02 11:16:30;;;;;;;23.73;12.07;;;22.20;99.90;;;;;;5052531;28;20036;-69
2023/10/02 11:19:21;;;;;;;20.35;12.02;;;22.30;99.90;;;;;;5050985;28;20390;-70
2023/10/02 11:22:14;;;;;;;21.00;12.48;;;22.40;99.90;;;;;;5051012;28;20479;-69
2023/10/02 11:24:44;;;;;;;19.90;11.05;;;22.40;99.90;;;;;;5052529;28;20032;-69
2023/10/02 11:27:16;;;;;;;28.15;11.93;;;22.40;99.90;;;;;;5051968;28;20359;-70
2023/10/02 11:29:45;;;;;;;20.25;11.82;;;22.50;99.90;;;;;;5052459;28;20025;-70
2023/10/02 11:32:22;;;;;;;22.33;12.07;;;22.50;99.90;;;;;;5051777;28;20498;-70
2023/10/02 11:35:02;;;;;;;22.08;11.18;;;22.60;99.90;;;;;;5052461;28;20025;-69
2023/10/02 11:37:28;;;;;;;19.83;10.65;;;22.60;99.90;;;;;;5051734;28;20471;-70
2023/10/02 11:39:55;;;;;;;28.73;13.10;;;22.70;99.90;;;;;;5051314;28;20061;-70
2023/10/02 11:42:24;;;;;;;21.60;12.80;;;22.70;99.90;;;;;;5051757;28;20025;-70
2023/10/02 11:44:50;;;;;;;21.38;11.45;;;22.70;99.90;;;;;;5052258;28;20020;-69
2023/10/02 11:47:15;;;;;;;19.27;11.05;;;22.80;99.90;;;;;;5051592;28;20483;-70
2023/10/02 11:49:42;;;;;;;19.98;11.20;;;22.80;99.90;;;;;;5051733;28;20045;-69
2023/10/02 11:52:09;;;;;;;25.40;11.43;;;22.90;99.90;;;;;;5050309;28;20488;-69
2023/10/02 11:54:39;;;;;;;17.83;11.27;;;22.90;99.90;;;;;;5052014;28;20139;-69
2023/10/02 11:57:12;;;;;;;19.77;10.82;;;22.90;99.90;;;;;;5051610;28;20029;-70
2023/10/02 11:59:42;;;;;;;21.33;11.52;;;22.90;99.90;;;;;;5051874;28;20445;-70
2023/10/02 12:02:13;;;;;;;20.83;10.65;;;23.00;99.90;;;;;;5051560;28;20031;-70
2023/10/02 12:04:39;;;;;;;;;;;23.00;99.90;;;;;;5051765;28;20384;-70
2023/10/02 12:07:05;;;;;;;18.45;9.98;;;23.10;99.90;;;;;;5051263;28;19916;-70
2023/10/02 12:09:33;;;;;;;19.58;11.35;;;23.10;99.90;;;;;;5051391;28;20487;-70
2023/10/02 12:11:59;;;;;;;18.55;11.07;;;23.10;99.90;;;;;;5051478;28;20079;-70
2023/10/02 12:14:30;;;;;;;20.15;11.13;;;23.20;99.90;;;;;;5051522;28;20032;-70
2023/10/02 12:16:57;;;;;;;;;;;23.20;99.90;;;;;;5051833;28;20017;-70
2023/10/02 12:19:31;;;;;;;19.45;10.93;;;23.20;99.90;;;;;;5051609;28;19975;-69
2023/10/02 12:21:57;;;;;;;18.75;10.82;;;23.30;99.90;;;;;;5051606;28;20487;-70
2023/10/02 12:24:22;;;;;;;21.73;11.15;;;23.30;99.90;;;;;;5051463;28;20028;-70
2023/10/02 12:26:49;;;;;;;20.90;11.50;;;23.40;99.90;;;;;;5051623;28;20027;-70
2023/10/02 12:29:15;;;;;;;19.88;11.07;;;23.40;99.90;;;;;;5051066;28;20025;-70
2023/10/02 12:31:42;;;;;;;19.55;11.00;;;23.40;99.90;;;;;;5051514;28;20083;-70
2023/10/02 12:34:08;;;;;;;19.48;11.35;;;23.50;99.90;;;;;;5049668;28;20017;-70
2023/10/02 12:36:34;;;;;;;19.92;10.68;;;23.50;99.90;;;;;;5050954;28;20479;-70
2023/10/02 12:39:00;;;;;;;21.58;11.25;;;23.60;99.90;;;;;;5049543;28;20025;-70
2023/10/02 12:41:27;;;;;;;25.02;12.50;;;23.70;99.90;;;;;;5051581;28;20021;-70
2023/10/02 12:43:58;;;;;;;22.73;11.70;;;23.70;99.90;;;;;;5050840;28;20013;-70
2023/10/02 12:46:28;;;;;;;22.08;11.60;;;23.80;99.90;;;;;;5051459;28;20111;-69
2023/10/02 12:48:55;;;;;;;21.95;11.48;;;23.90;99.90;;;;;;5050854;28;20045;-70
2023/10/02 12:51:21;;;;;;;23.50;13.27;;;23.90;99.90;;;;;;5051606;28;20029;-70
2023/10/02 12:53:47;;;;;;;21.15;12.48;;;23.90;99.90;;;;;;5050672;28;20021;-70
2023/10/02 12:56:20;;;;;;;22.75;12.80;;;23.90;99.90;;;;;;5051207;28;20383;-70
2023/10/02 12:58:50;;;;;;;22.30;12.10;;;23.90;99.90;;;;;;5050779;28;20017;-70
2023/10/02 13:01:24;;;;;;;19.98;11.48;;;24.00;99.90;;;;;;5050248;28;20439;-70
2023/10/02 13:03:54;;;;;;;27.25;12.35;;;24.00;99.90;;;;;;5050910;28;20036;-70
2023/10/02 13:06:22;;;;;;;25.65;14.32;;;24.00;99.90;;;;;;5051358;28;20032;-70
2023/10/02 13:08:48;;;;;;;22.67;13.27;;;24.00;99.90;;;;;;5050696;28;20086;-70
2023/10/02 13:11:18;;;;;;;25.60;13.45;;;23.90;99.90;;;;;;5051266;28;20024;-70
2023/10/02 13:13:46;;;;;;;23.88;13.00;;;23.90;99.90;;;;;;5050878;28;20083;-70
2023/10/02 13:16:13;;;;;;;25.17;14.13;;;24.00;99.90;;;;;;5051920;28;20021;-70
2023/10/02 13:18:39;;;;;;;27.73;13.98;;;24.00;99.90;;;;;;5054532;28;20017;-70
2023/10/02 13:21:09;;;;;;;23.70;14.15;;;24.00;99.90;;;;;;5055023;28;20021;-70
2023/10/02 13:23:35;;;;;;;24.33;13.20;;;24.00;99.90;;;;;;5053497;28;20055;-70
2023/10/02 13:26:04;;;;;;;27.98;14.25;;;24.00;99.90;;;;;;5055233;28;20395;-70
2023/10/02 13:28:30;;;;;;;20.42;12.85;;;24.00;99.90;;;;;;5052651;28;20024;-70
2023/10/02 13:30:56;;;;;;;29.25;14.80;;;23.90;99.90;;;;;;5054778;28;20136;-70
2023/10/02 13:33:22;;;;;;;25.45;13.75;;;23.90;99.90;;;;;;5053069;28;20060;-70
2023/10/02 13:35:57;;;;;;;23.33;13.55;;;23.90;99.90;;;;;;5054551;28;20426;-70
2023/10/02 13:38:24;;;;;;;25.45;13.82;;;23.90;99.90;;;;;;5053799;28;20021;-70
2023/10/02 13:40:49;;;;;;;26.90;14.95;;;23.90;99.90;;;;;;5054361;28;20017;-70
2023/10/02 13:43:17;;;;;;;25.42;14.05;;;24.00;99.90;;;;;;5053924;28;20021;-70
2023/10/02 13:45:45;;;;;;;23.90;13.25;;;24.00;99.90;;;;;;5054375;28;20024;-70
2023/10/02 13:48:13;;;;;;;21.83;12.95;;;24.00;99.90;;;;;;5053673;28;20021;-70
2023/10/02 13:50:38;;;;;;;25.55;13.48;;;24.00;99.90;;;;;;5054084;28;20534;-70
2023/10/02 13:53:05;;;;;;;20.85;12.45;;;24.00;99.90;;;;;;5053543;28;20029;-70